sensor_id;sensor_type;location;lat;lon;timestamp;pressure;altitude;pressure_sealevel;temperature;humidity
72055;BME280;59936;51.490;5.436;2022-10-17T00:04:42;101313.47;;;12.09;100.00
72055;BME280;59936;51.490;5.436;2022-10-17T00:09:45;101308.34;;;12.06;100.00
72055;BME280;59936;51.490;5.436;2022-10-17T00:14:47;101309.06;;;12.31;100.00
72055;BME280;59936;51.490;5.436;2022-10-17T00:19:49;101301.56;;;12.23;100.00
72055;BME280;59936;51.490;5.436;2022-10-17T00:24:52;101301.16;;;12.32;100.00
72055;BME280;59936;51.490;5.436;2022-10-17T00:29:54;101293.53;;;12.28;100.00
72055;BME280;59936;51.490;5.436;2022-10-17T00:34:56;101293.56;;;12.47;100.00
72055;BME280;59936;51.490;5.436;2022-10-17T00:40:01;101289.47;;;12.20;100.00
72055;BME280;59936;51.490;5.436;2022-10-17T00:45:20;101290.75;;;12.10;100.00
72055;BME280;59936;51.490;5.436;2022-10-17T00:50:24;101287.56;;;12.24;100.00
72055;BME280;59936;51.490;5.436;2022-10-17T00:55:30;101285.59;;;12.29;100.00
72055;BME280;59936;51.490;5.436;2022-10-17T01:00:35;101276.91;;;12.29;100.00
72055;BME280;59936;51.490;5.436;2022-10-17T01:05:38;101280.38;;;12.29;100.00
72055;BME280;59936;51.490;5.436;2022-10-17T01:10:53;101282.19;;;12.27;100.00
72055;BME280;59936;51.490;5.436;2022-10-17T01:16:08;101285.28;;;12.37;100.00
72055;BME280;59936;51.490;5.436;2022-10-17T01:21:29;101286.06;;;12.39;100.00
72055;BME280;59936;51.490;5.436;2022-10-17T01:26:56;101282.44;;;12.62;100.00
72055;BME280;59936;51.490;5.436;2022-10-17T01:32:14;101282.00;;;12.72;100.00
72055;BME280;59936;51.490;5.436;2022-10-17T01:37:24;101278.81;;;13.05;100.00
72055;BME280;59936;51.490;5.436;2022-10-17T01:42:32;101278.44;;;13.32;100.00
72055;BME280;59936;51.490;5.436;2022-10-17T01:47:39;101267.72;;;13.37;100.00
72055;BME280;59936;51.490;5.436;2022-10-17T01:52:47;101267.88;;;13.53;100.00
72055;BME280;59936;51.490;5.436;2022-10-17T01:57:55;101275.53;;;13.58;100.00
72055;BME280;59936;51.490;5.436;2022-10-17T02:03:06;101271.25;;;13.55;100.00
72055;BME280;59936;51.490;5.436;2022-10-17T02:08:24;101261.50;;;13.59;100.00
72055;BME280;59936;51.490;5.436;2022-10-17T02:13:36;101258.78;;;13.60;100.00
72055;BME280;59936;51.490;5.436;2022-10-17T02:19:00;101247.38;;;13.79;100.00
72055;BME280;59936;51.490;5.436;2022-10-17T02:24:18;101252.94;;;13.73;100.00
72055;BME280;59936;51.490;5.436;2022-10-17T02:29:29;101258.66;;;13.81;100.00
72055;BME280;59936;51.490;5.436;2022-10-17T02:34:38;101246.00;;;13.89;100.00
72055;BME280;59936;51.490;5.436;2022-10-17T02:39:43;101260.53;;;13.97;100.00
72055;BME280;59936;51.490;5.436;2022-10-17T02:44:47;101246.47;;;13.98;100.00
72055;BME280;59936;51.490;5.436;2022-10-17T02:49:54;101252.66;;;13.97;100.00
72055;BME280;59936;51.490;5.436;2022-10-17T02:55:03;101258.59;;;13.83;100.00
72055;BME280;59936;51.490;5.436;2022-10-17T03:00:12;101243.09;;;13.96;100.00
72055;BME280;59936;51.490;5.436;2022-10-17T03:05:19;101245.25;;;13.87;100.00
72055;BME280;59936;51.490;5.436;2022-10-17T03:10:24;101242.38;;;13.92;100.00
72055;BME280;59936;51.490;5.436;2022-10-17T03:15:25;101250.31;;;13.90;100.00
72055;BME280;59936;51.490;5.436;2022-10-17T03:20:28;101256.50;;;13.72;100.00
72055;BME280;59936;51.490;5.436;2022-10-17T03:25:30;101253.09;;;13.70;100.00
72055;BME280;59936;51.490;5.436;2022-10-17T03:30:32;101258.75;;;13.97;100.00
72055;BME280;59936;51.490;5.436;2022-10-17T03:35:35;101245.31;;;14.03;100.00
72055;BME280;59936;51.490;5.436;2022-10-17T03:40:39;101246.00;;;14.07;100.00
72055;BME280;59936;51.490;5.436;2022-10-17T03:45:40;101252.97;;;14.08;100.00
72055;BME280;59936;51.490;5.436;2022-10-17T03:50:43;101237.66;;;14.16;100.00
72055;BME280;59936;51.490;5.436;2022-10-17T03:55:45;101240.28;;;14.16;100.00
72055;BME280;59936;51.490;5.436;2022-10-17T04:00:47;101246.06;;;14.23;100.00
72055;BME280;59936;51.490;5.436;2022-10-17T04:05:50;101246.28;;;14.36;100.00
72055;BME280;59936;51.490;5.436;2022-10-17T04:10:51;101254.75;;;14.41;100.00
72055;BME280;59936;51.490;5.436;2022-10-17T04:15:54;101250.56;;;14.55;100.00
72055;BME280;59936;51.490;5.436;2022-10-17T04:20:57;101266.34;;;14.55;100.00
72055;BME280;59936;51.490;5.436;2022-10-17T04:26:02;101261.75;;;14.59;100.00
72055;BME280;59936;51.490;5.436;2022-10-17T04:31:07;101272.97;;;14.62;100.00
72055;BME280;59936;51.490;5.436;2022-10-17T04:36:15;101276.84;;;14.71;100.00
72055;BME280;59936;51.490;5.436;2022-10-17T04:41:19;101285.06;;;14.83;100.00
72055;BME280;59936;51.490;5.436;2022-10-17T04:46:20;101298.47;;;14.94;100.00
72055;BME280;59936;51.490;5.436;2022-10-17T04:51:23;101296.25;;;14.86;100.00
72055;BME280;59936;51.490;5.436;2022-10-17T04:56:25;101310.66;;;14.79;100.00
72055;BME280;59936;51.490;5.436;2022-10-17T05:01:27;101321.09;;;14.80;100.00
72055;BME280;59936;51.490;5.436;2022-10-17T05:06:30;101318.38;;;14.82;100.00
72055;BME280;59936;51.490;5.436;2022-10-17T05:11:32;101319.59;;;14.75;100.00
72055;BME280;59936;51.490;5.436;2022-10-17T05:16:34;101308.03;;;14.79;100.00
72055;BME280;59936;51.490;5.436;2022-10-17T05:21:37;101315.91;;;14.79;100.00
72055;BME280;59936;51.490;5.436;2022-10-17T05:26:39;101320.19;;;14.98;100.00
72055;BME280;59936;51.490;5.436;2022-10-17T05:31:41;101319.84;;;15.04;100.00
72055;BME280;59936;51.490;5.436;2022-10-17T05:36:44;101328.44;;;15.08;100.00
72055;BME280;59936;51.490;5.436;2022-10-17T05:41:45;101339.34;;;15.00;100.00
72055;BME280;59936;51.490;5.436;2022-10-17T05:46:47;101335.59;;;15.04;100.00
72055;BME280;59936;51.490;5.436;2022-10-17T05:51:50;101350.91;;;15.13;100.00
72055;BME280;59936;51.490;5.436;2022-10-17T05:56:52;101343.09;;;15.12;100.00
72055;BME280;59936;51.490;5.436;2022-10-17T06:01:55;101340.88;;;15.04;100.00
72055;BME280;59936;51.490;5.436;2022-10-17T06:06:59;101341.22;;;15.14;100.00
72055;BME280;59936;51.490;5.436;2022-10-17T06:12:01;101347.41;;;15.29;100.00
72055;BME280;59936;51.490;5.436;2022-10-17T06:17:02;101355.22;;;15.30;100.00
72055;BME280;59936;51.490;5.436;2022-10-17T06:22:05;101350.66;;;15.34;100.00
72055;BME280;59936;51.490;5.436;2022-10-17T06:27:07;101353.13;;;15.37;100.00
72055;BME280;59936;51.490;5.436;2022-10-17T06:32:09;101353.56;;;15.45;100.00
72055;BME280;59936;51.490;5.436;2022-10-17T06:37:12;101355.25;;;15.47;100.00
72055;BME280;59936;51.490;5.436;2022-10-17T06:42:14;101365.44;;;15.53;100.00
72055;BME280;59936;51.490;5.436;2022-10-17T06:47:15;101366.59;;;15.63;100.00
72055;BME280;59936;51.490;5.436;2022-10-17T06:52:18;101377.72;;;15.68;100.00
72055;BME280;59936;51.490;5.436;2022-10-17T06:57:20;101382.13;;;15.84;100.00
72055;BME280;59936;51.490;5.436;2022-10-17T07:02:22;101371.03;;;15.95;100.00
72055;BME280;59936;51.490;5.436;2022-10-17T07:07:25;101379.25;;;16.05;100.00
72055;BME280;59936;51.490;5.436;2022-10-17T07:12:26;101389.78;;;16.05;100.00
72055;BME280;59936;51.490;5.436;2022-10-17T07:17:28;101385.19;;;16.08;100.00
72055;BME280;59936;51.490;5.436;2022-10-17T07:22:31;101398.84;;;16.15;100.00
72055;BME280;59936;51.490;5.436;2022-10-17T07:27:34;101402.81;;;16.22;100.00
72055;BME280;59936;51.490;5.436;2022-10-17T07:32:35;101418.28;;;16.29;100.00
72055;BME280;59936;51.490;5.436;2022-10-17T07:37:40;101442.69;;;16.16;100.00
72055;BME280;59936;51.490;5.436;2022-10-17T07:42:41;101476.97;;;16.31;100.00
72055;BME280;59936;51.490;5.436;2022-10-17T07:47:44;101510.44;;;16.29;100.00
72055;BME280;59936;51.490;5.436;2022-10-17T07:52:47;101524.78;;;16.39;100.00
72055;BME280;59936;51.490;5.436;2022-10-17T07:57:49;101526.13;;;16.46;100.00
72055;BME280;59936;51.490;5.436;2022-10-17T08:02:50;101539.06;;;16.51;100.00
72055;BME280;59936;51.490;5.436;2022-10-17T08:07:53;101533.94;;;16.64;100.00
72055;BME280;59936;51.490;5.436;2022-10-17T08:12:56;101540.03;;;16.65;100.00
72055;BME280;59936;51.490;5.436;2022-10-17T08:17:58;101553.31;;;16.63;100.00
72055;BME280;59936;51.490;5.436;2022-10-17T08:23:02;101590.03;;;16.66;100.00
72055;BME280;59936;51.490;5.436;2022-10-17T08:28:03;101587.91;;;16.57;100.00
72055;BME280;59936;51.490;5.436;2022-10-17T08:33:05;101599.06;;;16.46;100.00
72055;BME280;59936;51.490;5.436;2022-10-17T08:38:09;101593.78;;;16.30;100.00
72055;BME280;59936;51.490;5.436;2022-10-17T08:43:21;101600.75;;;16.15;100.00
72055;BME280;59936;51.490;5.436;2022-10-17T08:48:32;101600.91;;;15.94;100.00
72055;BME280;59936;51.490;5.436;2022-10-17T08:53:42;101590.03;;;15.84;100.00
72055;BME280;59936;51.490;5.436;2022-10-17T08:58:50;101595.38;;;15.82;100.00
72055;BME280;59936;51.490;5.436;2022-10-17T09:04:05;101590.88;;;15.84;100.00
72055;BME280;59936;51.490;5.436;2022-10-17T09:09:36;101618.66;;;15.90;100.00
72055;BME280;59936;51.490;5.436;2022-10-17T09:20:45;101657.25;;;15.74;100.00
72055;BME280;59936;51.490;5.436;2022-10-17T09:25:54;101682.78;;;15.54;100.00
72055;BME280;59936;51.490;5.436;2022-10-17T09:31:03;101582.75;;;15.38;100.00
72055;BME280;59936;51.490;5.436;2022-10-17T09:36:10;101571.63;;;15.32;100.00
72055;BME280;59936;51.490;5.436;2022-10-17T09:41:20;101594.22;;;15.37;100.00
72055;BME280;59936;51.490;5.436;2022-10-17T09:46:29;101629.06;;;15.40;100.00
72055;BME280;59936;51.490;5.436;2022-10-17T09:51:37;101626.28;;;15.43;100.00
72055;BME280;59936;51.490;5.436;2022-10-17T09:56:59;101626.16;;;15.47;100.00
72055;BME280;59936;51.490;5.436;2022-10-17T10:02:15;101599.84;;;15.47;100.00
72055;BME280;59936;51.490;5.436;2022-10-17T10:07:20;101602.94;;;15.55;100.00
72055;BME280;59936;51.490;5.436;2022-10-17T10:12:26;101618.72;;;15.55;100.00
72055;BME280;59936;51.490;5.436;2022-10-17T10:17:36;101631.88;;;15.55;100.00
72055;BME280;59936;51.490;5.436;2022-10-17T10:22:40;101651.06;;;15.57;100.00
72055;BME280;59936;51.490;5.436;2022-10-17T10:27:45;101665.75;;;15.61;100.00
72055;BME280;59936;51.490;5.436;2022-10-17T10:32:49;101658.47;;;15.66;100.00
72055;BME280;59936;51.490;5.436;2022-10-17T10:37:53;101669.69;;;15.70;100.00
72055;BME280;59936;51.490;5.436;2022-10-17T10:42:59;101688.50;;;15.98;100.00
72055;BME280;59936;51.490;5.436;2022-10-17T10:48:17;101719.59;;;16.07;100.00
72055;BME280;59936;51.490;5.436;2022-10-17T10:53:30;101726.31;;;15.96;100.00
72055;BME280;59936;51.490;5.436;2022-10-17T10:58:48;101717.59;;;15.94;100.00
72055;BME280;59936;51.490;5.436;2022-10-17T11:09:36;101722.38;;;16.21;100.00
72055;BME280;59936;51.490;5.436;2022-10-17T11:14:53;101727.06;;;16.32;100.00
72055;BME280;59936;51.490;5.436;2022-10-17T11:20:10;101738.91;;;16.41;100.00
72055;BME280;59936;51.490;5.436;2022-10-17T11:25:29;101748.06;;;16.34;100.00
72055;BME280;59936;51.490;5.436;2022-10-17T11:30:44;101765.75;;;16.32;100.00
72055;BME280;59936;51.490;5.436;2022-10-17T11:35:51;101764.75;;;16.34;100.00
72055;BME280;59936;51.490;5.436;2022-10-17T11:40:59;101769.94;;;16.36;100.00
72055;BME280;59936;51.490;5.436;2022-10-17T11:46:05;101774.41;;;16.34;100.00
72055;BME280;59936;51.490;5.436;2022-10-17T11:51:16;101771.19;;;16.29;100.00
72055;BME280;59936;51.490;5.436;2022-10-17T11:56:21;101779.53;;;16.37;100.00
72055;BME280;59936;51.490;5.436;2022-10-17T12:01:34;101779.75;;;16.32;100.00
72055;BME280;59936;51.490;5.436;2022-10-17T12:06:58;101794.63;;;16.33;100.00
72055;BME280;59936;51.490;5.436;2022-10-17T12:12:23;101791.53;;;16.43;100.00
72055;BME280;59936;51.490;5.436;2022-10-17T12:17:30;101787.09;;;16.43;100.00
72055;BME280;59936;51.490;5.436;2022-10-17T12:22:45;101796.19;;;16.38;100.00
72055;BME280;59936;51.490;5.436;2022-10-17T12:27:48;101796.88;;;16.41;100.00
72055;BME280;59936;51.490;5.436;2022-10-17T12:33:00;101787.44;;;16.53;100.00
72055;BME280;59936;51.490;5.436;2022-10-17T12:38:23;101795.88;;;16.94;100.00
72055;BME280;59936;51.490;5.436;2022-10-17T12:43:47;101798.75;;;16.89;100.00
72055;BME280;59936;51.490;5.436;2022-10-17T12:49:03;101802.66;;;16.82;100.00
72055;BME280;59936;51.490;5.436;2022-10-17T12:54:10;101814.50;;;16.91;100.00
72055;BME280;59936;51.490;5.436;2022-10-17T12:59:17;101821.25;;;16.79;100.00
72055;BME280;59936;51.490;5.436;2022-10-17T13:04:23;101838.31;;;16.89;100.00
72055;BME280;59936;51.490;5.436;2022-10-17T13:09:31;101833.69;;;16.77;100.00
72055;BME280;59936;51.490;5.436;2022-10-17T13:14:38;101839.28;;;16.70;100.00
72055;BME280;59936;51.490;5.436;2022-10-17T13:19:44;101839.47;;;16.50;100.00
72055;BME280;59936;51.490;5.436;2022-10-17T13:24:47;101849.44;;;16.60;100.00
72055;BME280;59936;51.490;5.436;2022-10-17T13:29:50;101854.47;;;16.65;100.00
72055;BME280;59936;51.490;5.436;2022-10-17T13:35:12;101865.19;;;16.62;100.00
72055;BME280;59936;51.490;5.436;2022-10-17T13:40:17;101871.53;;;16.58;100.00
72055;BME280;59936;51.490;5.436;2022-10-17T13:45:26;101873.78;;;16.48;100.00
72055;BME280;59936;51.490;5.436;2022-10-17T13:50:35;101880.38;;;16.39;100.00
72055;BME280;59936;51.490;5.436;2022-10-17T13:55:52;101888.28;;;16.39;100.00
72055;BME280;59936;51.490;5.436;2022-10-17T14:00:56;101896.81;;;16.44;100.00
72055;BME280;59936;51.490;5.436;2022-10-17T14:06:05;101900.53;;;16.58;100.00
72055;BME280;59936;51.490;5.436;2022-10-17T14:11:22;101918.03;;;16.77;100.00
72055;BME280;59936;51.490;5.436;2022-10-17T14:16:34;101918.19;;;16.73;100.00
72055;BME280;59936;51.490;5.436;2022-10-17T14:21:40;101929.97;;;16.66;100.00
72055;BME280;59936;51.490;5.436;2022-10-17T14:26:49;101934.16;;;16.70;100.00
72055;BME280;59936;51.490;5.436;2022-10-17T14:31:57;101936.34;;;16.80;100.00
72055;BME280;59936;51.490;5.436;2022-10-17T14:37:07;101941.97;;;16.72;100.00
72055;BME280;59936;51.490;5.436;2022-10-17T14:42:17;101933.53;;;16.65;100.00
72055;BME280;59936;51.490;5.436;2022-10-17T14:47:24;101942.22;;;16.67;100.00
72055;BME280;59936;51.490;5.436;2022-10-17T14:52:31;101927.03;;;16.72;100.00
72055;BME280;59936;51.490;5.436;2022-10-17T14:57:41;101935.53;;;16.78;100.00
72055;BME280;59936;51.490;5.436;2022-10-17T15:02:45;101932.06;;;16.77;100.00
72055;BME280;59936;51.490;5.436;2022-10-17T15:07:48;101930.91;;;16.65;100.00
72055;BME280;59936;51.490;5.436;2022-10-17T15:12:50;101936.97;;;16.67;100.00
72055;BME280;59936;51.490;5.436;2022-10-17T15:17:51;101951.38;;;16.60;100.00
72055;BME280;59936;51.490;5.436;2022-10-17T15:22:55;101959.28;;;16.60;100.00
72055;BME280;59936;51.490;5.436;2022-10-17T15:27:58;101980.97;;;16.65;100.00
72055;BME280;59936;51.490;5.436;2022-10-17T15:33:00;101980.38;;;16.60;100.00
72055;BME280;59936;51.490;5.436;2022-10-17T15:38:05;102001.84;;;16.70;100.00
72055;BME280;59936;51.490;5.436;2022-10-17T15:43:08;102001.72;;;16.54;100.00
72055;BME280;59936;51.490;5.436;2022-10-17T15:48:17;102002.50;;;16.38;100.00
72055;BME280;59936;51.490;5.436;2022-10-17T15:53:21;102009.44;;;16.39;100.00
72055;BME280;59936;51.490;5.436;2022-10-17T15:58:23;102011.59;;;16.31;100.00
72055;BME280;59936;51.490;5.436;2022-10-17T16:03:27;102012.69;;;16.27;100.00
72055;BME280;59936;51.490;5.436;2022-10-17T16:08:30;102023.03;;;16.12;100.00
72055;BME280;59936;51.490;5.436;2022-10-17T16:13:32;102033.84;;;16.06;100.00
72055;BME280;59936;51.490;5.436;2022-10-17T16:18:34;102031.59;;;15.98;100.00
72055;BME280;59936;51.490;5.436;2022-10-17T16:23:37;102029.28;;;15.90;100.00
72055;BME280;59936;51.490;5.436;2022-10-17T16:28:39;102028.56;;;15.87;100.00
72055;BME280;59936;51.490;5.436;2022-10-17T16:33:41;102032.28;;;15.82;100.00
72055;BME280;59936;51.490;5.436;2022-10-17T16:38:44;102035.38;;;15.71;100.00
72055;BME280;59936;51.490;5.436;2022-10-17T16:43:46;102038.94;;;15.70;100.00
72055;BME280;59936;51.490;5.436;2022-10-17T16:48:48;102049.72;;;15.64;100.00
72055;BME280;59936;51.490;5.436;2022-10-17T16:53:52;102043.88;;;15.57;100.00
72055;BME280;59936;51.490;5.436;2022-10-17T16:59:00;102043.06;;;15.57;100.00
72055;BME280;59936;51.490;5.436;2022-10-17T17:04:02;102046.06;;;15.48;100.00
72055;BME280;59936;51.490;5.436;2022-10-17T17:09:05;102056.88;;;15.41;100.00
72055;BME280;59936;51.490;5.436;2022-10-17T17:14:10;102054.50;;;15.35;100.00
72055;BME280;59936;51.490;5.436;2022-10-17T17:19:13;102056.34;;;15.33;100.00
72055;BME280;59936;51.490;5.436;2022-10-17T17:24:19;102053.84;;;15.30;100.00
72055;BME280;59936;51.490;5.436;2022-10-17T17:29:22;102073.25;;;15.27;100.00
72055;BME280;59936;51.490;5.436;2022-10-17T17:34:24;102082.97;;;15.25;100.00
72055;BME280;59936;51.490;5.436;2022-10-17T17:39:27;102084.72;;;15.25;100.00
72055;BME280;59936;51.490;5.436;2022-10-17T17:44:30;102088.28;;;15.24;100.00
72055;BME280;59936;51.490;5.436;2022-10-17T17:49:32;102102.50;;;15.19;100.00
72055;BME280;59936;51.490;5.436;2022-10-17T17:54:36;102115.09;;;15.11;100.00
72055;BME280;59936;51.490;5.436;2022-10-17T17:59:37;102102.88;;;15.10;100.00
72055;BME280;59936;51.490;5.436;2022-10-17T18:04:40;102105.47;;;15.12;100.00
72055;BME280;59936;51.490;5.436;2022-10-17T18:09:43;102108.03;;;15.13;100.00
72055;BME280;59936;51.490;5.436;2022-10-17T18:14:46;102124.03;;;15.07;100.00
72055;BME280;59936;51.490;5.436;2022-10-17T18:19:48;102128.59;;;15.03;100.00
72055;BME280;59936;51.490;5.436;2022-10-17T18:24:50;102132.50;;;14.93;100.00
72055;BME280;59936;51.490;5.436;2022-10-17T18:29:52;102141.53;;;14.86;100.00
72055;BME280;59936;51.490;5.436;2022-10-17T18:34:55;102134.63;;;14.83;100.00
72055;BME280;59936;51.490;5.436;2022-10-17T18:39:58;102138.31;;;14.79;100.00
72055;BME280;59936;51.490;5.436;2022-10-17T18:45:02;102139.31;;;14.75;100.00
72055;BME280;59936;51.490;5.436;2022-10-17T18:50:05;102151.13;;;14.87;100.00
72055;BME280;59936;51.490;5.436;2022-10-17T18:55:08;102147.50;;;14.89;100.00
72055;BME280;59936;51.490;5.436;2022-10-17T19:00:11;102147.88;;;15.02;100.00
72055;BME280;59936;51.490;5.436;2022-10-17T19:05:13;102148.84;;;15.00;100.00
72055;BME280;59936;51.490;5.436;2022-10-17T19:10:17;102154.00;;;15.03;100.00
72055;BME280;59936;51.490;5.436;2022-10-17T19:15:19;102148.75;;;15.03;100.00
72055;BME280;59936;51.490;5.436;2022-10-17T19:20:22;102146.97;;;15.03;100.00
72055;BME280;59936;51.490;5.436;2022-10-17T19:25:25;102148.00;;;14.99;100.00
72055;BME280;59936;51.490;5.436;2022-10-17T19:30:30;102149.66;;;15.02;100.00
72055;BME280;59936;51.490;5.436;2022-10-17T19:35:32;102158.44;;;15.01;100.00
72055;BME280;59936;51.490;5.436;2022-10-17T19:40:40;102164.63;;;15.00;100.00
72055;BME280;59936;51.490;5.436;2022-10-17T19:45:41;102161.22;;;14.98;100.00
72055;BME280;59936;51.490;5.436;2022-10-17T19:50:43;102164.81;;;14.95;100.00
72055;BME280;59936;51.490;5.436;2022-10-17T19:55:47;102176.41;;;14.89;100.00
72055;BME280;59936;51.490;5.436;2022-10-17T20:00:51;102177.47;;;14.85;100.00
72055;BME280;59936;51.490;5.436;2022-10-17T20:05:54;102174.06;;;14.83;100.00
72055;BME280;59936;51.490;5.436;2022-10-17T20:10:57;102181.13;;;14.81;100.00
72055;BME280;59936;51.490;5.436;2022-10-17T20:16:04;102187.34;;;14.78;100.00
72055;BME280;59936;51.490;5.436;2022-10-17T20:21:10;102178.63;;;14.78;100.00
72055;BME280;59936;51.490;5.436;2022-10-17T20:26:17;102180.44;;;14.76;100.00
72055;BME280;59936;51.490;5.436;2022-10-17T20:31:20;102171.94;;;14.69;100.00
72055;BME280;59936;51.490;5.436;2022-10-17T20:36:23;102175.72;;;14.62;100.00
72055;BME280;59936;51.490;5.436;2022-10-17T20:41:26;102178.38;;;14.60;100.00
72055;BME280;59936;51.490;5.436;2022-10-17T20:46:28;102188.28;;;14.53;100.00
72055;BME280;59936;51.490;5.436;2022-10-17T20:51:31;102196.22;;;14.52;100.00
72055;BME280;59936;51.490;5.436;2022-10-17T20:56:35;102197.28;;;14.46;100.00
72055;BME280;59936;51.490;5.436;2022-10-17T21:01:37;102199.25;;;14.41;100.00
72055;BME280;59936;51.490;5.436;2022-10-17T21:06:39;102195.19;;;14.32;100.00
72055;BME280;59936;51.490;5.436;2022-10-17T21:11:42;102197.75;;;14.34;100.00
72055;BME280;59936;51.490;5.436;2022-10-17T21:16:45;102190.84;;;14.31;100.00
72055;BME280;59936;51.490;5.436;2022-10-17T21:21:48;102194.47;;;14.28;100.00
72055;BME280;59936;51.490;5.436;2022-10-17T21:26:51;102204.25;;;14.23;100.00
72055;BME280;59936;51.490;5.436;2022-10-17T21:31:56;102211.59;;;14.13;100.00
72055;BME280;59936;51.490;5.436;2022-10-17T21:36:58;102218.88;;;14.05;100.00
72055;BME280;59936;51.490;5.436;2022-10-17T21:42:01;102233.03;;;14.01;100.00
72055;BME280;59936;51.490;5.436;2022-10-17T21:47:03;102221.75;;;13.99;100.00
72055;BME280;59936;51.490;5.436;2022-10-17T21:52:05;102227.97;;;13.95;100.00
72055;BME280;59936;51.490;5.436;2022-10-17T21:57:09;102249.22;;;13.88;100.00
72055;BME280;59936;51.490;5.436;2022-10-17T22:02:10;102254.56;;;13.85;100.00
72055;BME280;59936;51.490;5.436;2022-10-17T22:07:15;102258.38;;;13.75;100.00
72055;BME280;59936;51.490;5.436;2022-10-17T22:12:18;102256.22;;;13.61;100.00
72055;BME280;59936;51.490;5.436;2022-10-17T22:17:20;102259.84;;;13.57;100.00
72055;BME280;59936;51.490;5.436;2022-10-17T22:22:21;102266.97;;;13.53;100.00
72055;BME280;59936;51.490;5.436;2022-10-17T22:27:24;102255.47;;;13.57;100.00
72055;BME280;59936;51.490;5.436;2022-10-17T22:32:26;102258.03;;;13.59;100.00
72055;BME280;59936;51.490;5.436;2022-10-17T22:37:28;102261.47;;;13.61;100.00
72055;BME280;59936;51.490;5.436;2022-10-17T22:42:32;102264.78;;;13.68;100.00
72055;BME280;59936;51.490;5.436;2022-10-17T22:47:34;102267.16;;;13.74;100.00
72055;BME280;59936;51.490;5.436;2022-10-17T22:52:36;102267.88;;;13.79;100.00
72055;BME280;59936;51.490;5.436;2022-10-17T22:57:39;102262.69;;;13.77;100.00
72055;BME280;59936;51.490;5.436;2022-10-17T23:02:41;102275.81;;;13.77;100.00
72055;BME280;59936;51.490;5.436;2022-10-17T23:07:42;102277.66;;;13.74;100.00
72055;BME280;59936;51.490;5.436;2022-10-17T23:12:47;102269.84;;;13.72;100.00
72055;BME280;59936;51.490;5.436;2022-10-17T23:17:48;102270.75;;;13.71;100.00
72055;BME280;59936;51.490;5.436;2022-10-17T23:22:51;102271.91;;;13.62;100.00
72055;BME280;59936;51.490;5.436;2022-10-17T23:27:54;102274.34;;;13.69;100.00
72055;BME280;59936;51.490;5.436;2022-10-17T23:32:56;102269.09;;;13.69;100.00
72055;BME280;59936;51.490;5.436;2022-10-17T23:37:58;102270.84;;;13.68;100.00
72055;BME280;59936;51.490;5.436;2022-10-17T23:43:01;102262.97;;;13.68;100.00
72055;BME280;59936;51.490;5.436;2022-10-17T23:48:04;102267.47;;;13.64;100.00
72055;BME280;59936;51.490;5.436;2022-10-17T23:53:06;102281.44;;;13.65;100.00
72055;BME280;59936;51.490;5.436;2022-10-17T23:58:09;102276.06;;;13.70;100.00
